»·PEaware :: NKS818 KATL-KBWI

NKS818 :: KATL-KBWI

FLIGHT INFORMATION

Flight Status: Arrived
Operator:
Spirit Airlines
More flights by this operator :: More flights under this callsign
Pilot: Drew L. (13237)
Aircraft: AIRBUS A319
(A319)
More flights by this aircraft type
Origin: KATL Hartsfield-Jackson Atlanta
United States
Destination: KBWI Baltimore-Washington Intl
United States
More flights between these airports :: More routes between these airports
Route: JACCC2 KELLN Q58 PEETT THHMP RAVNN6
File this flight plan on PilotEdge
Remarks: RMK / SIMBRIEF
Altitude:
(Current/Filed)
37,000ft
Speed:
(Current/Filed)
445kts
Departed: 08-Oct-19 03:00 PM
Arrived: 08-Oct-19 04:25 PM
Distance/Time
Traveled:
500nm/1:25
Distance/Time
To Go:
Arrived

Flight Plot

Page will automatically refresh every two minutes.

Flight plan parsing failed; only flown route is shown


Map Options




Map Legend


Flown Route
Filed Route
Departure Airport
Arrival Airport
Navaid (VOR, NDB)
Fix

Horizontal Profiles

Position Reports

Time Latitude Longitude Heading Altitude Ground
Speed
08-Oct-19 14:01 33.638686 -84.429788 90 1033ft 0kts
08-Oct-19 14:02 33.638686 -84.429788 90 1033ft 0kts
08-Oct-19 14:03 33.638686 -84.429788 90 1033ft 0kts
08-Oct-19 14:04 33.638686 -84.429788 90 1033ft 0kts
08-Oct-19 14:05 33.638686 -84.429788 90 1033ft 0kts
08-Oct-19 14:06 33.638686 -84.429788 90 1033ft 0kts
08-Oct-19 14:07 33.638686 -84.429788 90 1033ft 0kts
08-Oct-19 14:08 33.638686 -84.429788 90 1033ft 0kts
08-Oct-19 14:09 33.638686 -84.429788 90 1033ft 0kts
08-Oct-19 14:10 33.638686 -84.429788 90 1033ft 0kts
08-Oct-19 14:11 33.638686 -84.429788 90 1033ft 0kts
08-Oct-19 14:12 33.638686 -84.429788 90 1033ft 0kts
08-Oct-19 14:13 33.638686 -84.429788 90 1033ft 0kts
08-Oct-19 14:14 33.638686 -84.429788 90 1033ft 0kts
08-Oct-19 14:15 33.638686 -84.429788 90 1033ft 0kts
08-Oct-19 14:16 33.638686 -84.429788 90 1033ft 0kts
08-Oct-19 14:17 33.638686 -84.429788 90 1033ft 0kts
08-Oct-19 14:18 33.638686 -84.429788 90 1033ft 0kts
08-Oct-19 14:19 33.638686 -84.429788 90 1033ft 0kts
08-Oct-19 14:20 33.638686 -84.429788 90 1033ft 0kts
08-Oct-19 14:21 33.638686 -84.429788 90 1033ft 0kts
08-Oct-19 14:22 33.638686 -84.429788 90 1033ft 0kts
08-Oct-19 14:23 33.638686 -84.429788 90 1033ft 0kts
08-Oct-19 14:24 33.638686 -84.429788 90 1033ft 0kts
08-Oct-19 14:25 33.638686 -84.429788 90 1033ft 0kts
08-Oct-19 14:26 33.638686 -84.429788 90 1033ft 0kts
08-Oct-19 14:28 33.638686 -84.429788 90 1033ft 0kts
08-Oct-19 14:29 33.638686 -84.429788 90 1033ft 0kts
08-Oct-19 14:30 33.638686 -84.429788 90 1033ft 0kts
08-Oct-19 14:31 33.638686 -84.429788 90 1033ft 0kts
08-Oct-19 14:32 33.638686 -84.429788 90 1033ft 0kts
08-Oct-19 14:33 33.638686 -84.429788 90 1033ft 0kts
08-Oct-19 14:34 33.638686 -84.429788 90 1033ft 0kts
08-Oct-19 14:35 33.638686 -84.429788 90 1033ft 0kts
08-Oct-19 14:36 33.638686 -84.429788 90 1033ft 0kts
08-Oct-19 14:37 33.638686 -84.429788 90 1033ft 0kts
08-Oct-19 14:38 33.638686 -84.429788 90 1033ft 0kts
08-Oct-19 14:39 33.638686 -84.429788 90 1033ft 0kts
08-Oct-19 14:40 33.638686 -84.429788 90 1033ft 0kts
08-Oct-19 14:41 33.638686 -84.429788 90 1033ft 0kts
08-Oct-19 14:42 33.638686 -84.429788 90 1033ft 0kts
08-Oct-19 14:43 33.638686 -84.429788 90 1033ft 0kts
08-Oct-19 14:44 33.638686 -84.429788 90 1033ft 0kts
08-Oct-19 14:45 33.638686 -84.429788 90 1033ft 0kts
08-Oct-19 14:46 33.638686 -84.429788 90 1033ft 0kts
08-Oct-19 14:47 33.638686 -84.429788 90 1033ft 0kts
08-Oct-19 14:47 33.638686 -84.429788 90 1033ft 0kts
08-Oct-19 14:49 33.638651 -84.431070 90 1033ft 0kts
08-Oct-19 14:50 33.638651 -84.431070 90 1033ft 0kts
08-Oct-19 14:50 33.638651 -84.431070 90 1033ft 0kts
08-Oct-19 14:51 33.638651 -84.431070 90 1033ft 0kts
08-Oct-19 14:53 33.638466 -84.430723 154 1033ft 8kts
08-Oct-19 14:53 33.635813 -84.430582 109 1033ft 16kts
08-Oct-19 14:54 33.635786 -84.425411 90 1033ft 13kts
08-Oct-19 14:55 33.635800 -84.419728 90 1033ft 19kts
08-Oct-19 14:56 33.635841 -84.412564 87 1033ft 23kts
08-Oct-19 14:57 33.635392 -84.407436 188 1033ft 0kts
08-Oct-19 14:58 33.634688 -84.408008 272 1033ft 0kts
08-Oct-19 14:59 33.634711 -84.412054 270 1033ft 87kts
08-Oct-19 15:00 33.634333 -84.465477 263 2920ft 188kts
08-Oct-19 15:01 33.608846 -84.534514 245 5371ft 266kts
08-Oct-19 15:02 33.552608 -84.585989 181 9147ft 292kts
08-Oct-19 15:03 33.471728 -84.567124 136 11948ft 339kts
08-Oct-19 15:04 33.455895 -84.444195 90 13233ft 423kts
08-Oct-19 15:05 33.458848 -84.297781 85 15914ft 450kts
08-Oct-19 15:06 33.470982 -84.145087 85 18327ft 470kts
08-Oct-19 15:07 33.483437 -83.986039 86 20449ft 489kts
08-Oct-19 15:08 33.496168 -83.820641 86 22328ft 505kts
08-Oct-19 15:09 33.509024 -83.650895 86 24178ft 515kts
08-Oct-19 15:10 33.531208 -83.480731 81 26317ft 515kts
08-Oct-19 15:11 33.555289 -83.310719 83 28218ft 515kts
08-Oct-19 15:12 33.578425 -83.140944 83 29926ft 515kts
08-Oct-19 15:13 33.601242 -82.971940 84 31443ft 515kts
08-Oct-19 15:14 33.623972 -82.801936 84 32697ft 518kts
08-Oct-19 15:15 33.646587 -82.630852 85 33945ft 519kts
08-Oct-19 15:16 33.668888 -82.460199 85 35179ft 517kts
08-Oct-19 15:17 33.690915 -82.290141 85 36243ft 514kts
08-Oct-19 15:18 33.712809 -82.120897 85 37066ft 514kts
08-Oct-19 15:19 33.736405 -81.951610 84 37739ft 514kts
08-Oct-19 15:20 33.759851 -81.781297 85 38340ft 514kts
08-Oct-19 15:21 33.782953 -81.611462 85 38871ft 514kts
08-Oct-19 15:22 33.805851 -81.441414 85 39099ft 514kts
08-Oct-19 15:23 33.828737 -81.269774 85 39075ft 514kts
08-Oct-19 15:24 33.851336 -81.098965 84 39070ft 516kts
08-Oct-19 15:25 33.890147 -80.931591 74 39074ft 523kts
08-Oct-19 15:26 33.936117 -80.765485 74 39082ft 524kts
08-Oct-19 15:27 33.981539 -80.598729 74 39084ft 524kts
08-Oct-19 15:28 34.026729 -80.431731 74 39091ft 524kts
08-Oct-19 15:29 34.071582 -80.264824 75 39098ft 524kts
08-Oct-19 15:30 34.116540 -80.097172 74 39102ft 524kts
08-Oct-19 15:31 34.161423 -79.929474 75 39109ft 524kts
08-Oct-19 15:32 34.205804 -79.761980 72 39108ft 525kts
08-Oct-19 15:33 34.294172 -79.625817 27 39107ft 521kts
08-Oct-19 15:34 34.425051 -79.556109 17 39111ft 515kts
08-Oct-19 15:35 34.556838 -79.487868 17 39119ft 515kts
08-Oct-19 15:36 34.687982 -79.418816 17 39128ft 516kts
08-Oct-19 15:37 34.819537 -79.349306 18 39130ft 516kts
08-Oct-19 15:38 34.950802 -79.279257 19 39131ft 516kts
08-Oct-19 15:39 35.082396 -79.209182 19 39140ft 514kts
08-Oct-19 15:40 35.213456 -79.139370 19 39146ft 514kts
08-Oct-19 15:41 35.344244 -79.069346 18 39150ft 515kts
08-Oct-19 15:42 35.475614 -78.998721 18 39155ft 515kts
08-Oct-19 15:43 35.606729 -78.927969 18 39164ft 516kts
08-Oct-19 15:44 35.737721 -78.856967 18 39166ft 516kts
08-Oct-19 15:45 35.868960 -78.785665 18 39167ft 516kts
08-Oct-19 15:46 35.999970 -78.714346 18 39167ft 516kts
08-Oct-19 15:47 36.125709 -78.626630 34 39169ft 525kts
08-Oct-19 15:48 36.241351 -78.516642 34 39187ft 525kts
08-Oct-19 15:49 36.357521 -78.407389 33 39188ft 525kts
08-Oct-19 15:50 36.472659 -78.298621 34 39198ft 525kts
08-Oct-19 15:51 36.588763 -78.188404 34 39228ft 525kts
08-Oct-19 15:52 36.705226 -78.077758 34 39239ft 525kts
08-Oct-19 15:53 36.820862 -77.967465 34 38961ft 514kts
08-Oct-19 15:54 36.930634 -77.862320 34 37952ft 481kts
08-Oct-19 15:55 37.034058 -77.763152 35 36710ft 462kts
08-Oct-19 15:56 37.136839 -77.664273 36 34126ft 477kts
08-Oct-19 15:57 37.242998 -77.561487 34 31249ft 486kts
08-Oct-19 15:58 37.349975 -77.457673 32 28151ft 485kts
08-Oct-19 15:59 37.452484 -77.357679 32 26813ft 435kts
08-Oct-19 16:00 37.554488 -77.303521 4 25637ft 381kts
08-Oct-19 16:01 37.655862 -77.280002 5 24062ft 362kts
08-Oct-19 16:02 37.751067 -77.256445 6 23206ft 324kts
08-Oct-19 16:03 37.842042 -77.233001 7 23216ft 366kts
08-Oct-19 16:04 37.951668 -77.204507 8 23191ft 436kts
08-Oct-19 16:05 38.072846 -77.172842 9 21072ft 438kts
08-Oct-19 16:06 38.187668 -77.142867 10 18984ft 424kts
08-Oct-19 16:07 38.302028 -77.112883 11 16802ft 414kts
08-Oct-19 16:08 38.406740 -77.060120 34 14785ft 408kts
08-Oct-19 16:09 38.499740 -76.976980 36 12866ft 404kts
08-Oct-19 16:10 38.586504 -76.888587 43 11435ft 392kts
08-Oct-19 16:11 38.661736 -76.798349 43 9939ft 345kts
08-Oct-19 16:12 38.719924 -76.712999 61 9103ft 299kts
08-Oct-19 16:13 38.759219 -76.622533 61 7623ft 282kts
08-Oct-19 16:14 38.796762 -76.536987 53 6391ft 266kts
08-Oct-19 16:15 38.865652 -76.513556 3 5096ft 256kts
08-Oct-19 16:16 38.931387 -76.527871 345 3791ft 229kts
08-Oct-19 16:17 38.986570 -76.546745 346 3023ft 191kts
08-Oct-19 16:18 39.030713 -76.561446 347 2989ft 137kts
08-Oct-19 16:19 39.067094 -76.576068 333 2433ft 137kts
08-Oct-19 16:20 39.087480 -76.591946 328 1988ft 136kts
08-Oct-19 16:21 39.101999 -76.604788 326 1651ft 135kts
08-Oct-19 16:22 39.123206 -76.624211 325 1154ft 134kts
08-Oct-19 16:23 39.148484 -76.647789 325 556ft 132kts
08-Oct-19 16:24 39.170743 -76.668433 322 144ft 0kts

Navigation Log

Ident Type
Flight plan parsing failed, navigation log unavailable